sensor_id;sensor_type;location;lat;lon;timestamp;pressure;altitude;pressure_sealevel;temperature;humidity
18569;BME280;14780;48.316;-1.050;2023-02-19T00:01:47;100207.91;;;24.17;37.66
18569;BME280;14780;48.316;-1.050;2023-02-19T00:04:32;100209.28;;;24.19;37.76
18569;BME280;14780;48.316;-1.050;2023-02-19T00:07:16;100201.06;;;24.19;37.71
18569;BME280;14780;48.316;-1.050;2023-02-19T00:10:01;100199.19;;;24.20;37.75
18569;BME280;14780;48.316;-1.050;2023-02-19T00:12:46;100216.44;;;24.20;37.62
18569;BME280;14780;48.316;-1.050;2023-02-19T00:15:34;100224.38;;;24.22;37.60
18569;BME280;14780;48.316;-1.050;2023-02-19T00:18:19;100225.44;;;24.21;37.57
18569;BME280;14780;48.316;-1.050;2023-02-19T00:21:04;100207.16;;;24.21;37.61
18569;BME280;14780;48.316;-1.050;2023-02-19T00:23:53;100189.91;;;24.21;37.63
18569;BME280;14780;48.316;-1.050;2023-02-19T00:26:40;100208.81;;;24.22;37.58
18569;BME280;14780;48.316;-1.050;2023-02-19T00:29:26;100220.81;;;24.21;37.63
18569;BME280;14780;48.316;-1.050;2023-02-19T00:32:10;100225.22;;;24.22;37.60
18569;BME280;14780;48.316;-1.050;2023-02-19T00:34:56;100214.28;;;24.22;37.59
18569;BME280;14780;48.316;-1.050;2023-02-19T00:37:40;100189.38;;;24.24;37.49
18569;BME280;14780;48.316;-1.050;2023-02-19T00:40:25;100182.03;;;24.24;37.39
18569;BME280;14780;48.316;-1.050;2023-02-19T00:43:10;100179.28;;;24.24;37.45
18569;BME280;14780;48.316;-1.050;2023-02-19T00:45:54;100185.84;;;24.23;37.54
18569;BME280;14780;48.316;-1.050;2023-02-19T00:48:39;100195.69;;;24.24;37.40
18569;BME280;14780;48.316;-1.050;2023-02-19T00:51:27;100179.28;;;24.24;37.50
18569;BME280;14780;48.316;-1.050;2023-02-19T00:54:12;100162.88;;;24.24;37.44
18569;BME280;14780;48.316;-1.050;2023-02-19T00:56:57;100165.63;;;24.24;37.47
18569;BME280;14780;48.316;-1.050;2023-02-19T00:59:41;100163.44;;;24.26;37.40
18569;BME280;14780;48.316;-1.050;2023-02-19T01:02:26;100157.75;;;24.28;37.46
18569;BME280;14780;48.316;-1.050;2023-02-19T01:05:11;100156.91;;;24.27;37.33
18569;BME280;14780;48.316;-1.050;2023-02-19T01:07:55;100165.94;;;24.28;37.40
18569;BME280;14780;48.316;-1.050;2023-02-19T01:10:40;100167.59;;;24.29;37.45
18569;BME280;14780;48.316;-1.050;2023-02-19T01:13:25;100168.69;;;24.28;37.30
18569;BME280;14780;48.316;-1.050;2023-02-19T01:16:18;100166.78;;;24.28;37.30
18569;BME280;14780;48.316;-1.050;2023-02-19T01:19:03;100160.25;;;24.29;37.28
18569;BME280;14780;48.316;-1.050;2023-02-19T01:21:48;100162.97;;;24.29;37.24
18569;BME280;14780;48.316;-1.050;2023-02-19T01:24:32;100165.72;;;24.29;37.23
18569;BME280;14780;48.316;-1.050;2023-02-19T01:27:17;100160.25;;;24.29;37.21
18569;BME280;14780;48.316;-1.050;2023-02-19T01:30:01;100172.84;;;24.30;37.19
18569;BME280;14780;48.316;-1.050;2023-02-19T01:32:46;100172.84;;;24.30;37.14
18569;BME280;14780;48.316;-1.050;2023-02-19T01:35:31;100168.16;;;24.31;37.28
18569;BME280;14780;48.316;-1.050;2023-02-19T01:38:16;100166.28;;;24.31;37.21
18569;BME280;14780;48.316;-1.050;2023-02-19T01:41:05;100176.13;;;24.32;37.21
18569;BME280;14780;48.316;-1.050;2023-02-19T01:46:55;100168.16;;;24.31;37.11
18569;BME280;14780;48.316;-1.050;2023-02-19T01:49:52;100172.31;;;24.33;37.09
18569;BME280;14780;48.316;-1.050;2023-02-19T01:52:37;100173.97;;;24.34;37.17
18569;BME280;14780;48.316;-1.050;2023-02-19T01:55:23;100183.25;;;24.33;37.20
18569;BME280;14780;48.316;-1.050;2023-02-19T01:58:08;100176.47;;;24.36;37.19
18569;BME280;14780;48.316;-1.050;2023-02-19T02:00:54;100171.25;;;24.34;37.16
18569;BME280;14780;48.316;-1.050;2023-02-19T02:03:40;100184.91;;;24.34;37.03
18569;BME280;14780;48.316;-1.050;2023-02-19T02:06:30;100178.63;;;24.34;36.99
18569;BME280;14780;48.316;-1.050;2023-02-19T02:09:24;100169.00;;;24.31;36.91
18569;BME280;14780;48.316;-1.050;2023-02-19T02:12:29;100167.28;;;24.25;36.96
18569;BME280;14780;48.316;-1.050;2023-02-19T02:15:14;100170.25;;;24.24;37.03
18569;BME280;14780;48.316;-1.050;2023-02-19T02:18:08;100171.09;;;24.24;37.10
18569;BME280;14780;48.316;-1.050;2023-02-19T02:36:20;100180.28;;;24.35;37.03
18569;BME280;14780;48.316;-1.050;2023-02-19T02:39:12;100184.91;;;24.34;36.90
18569;BME280;14780;48.316;-1.050;2023-02-19T02:41:59;100170.44;;;24.34;37.03
18569;BME280;14780;48.316;-1.050;2023-02-19T02:45:32;100183.88;;;24.35;36.88
18569;BME280;14780;48.316;-1.050;2023-02-19T02:48:27;100173.50;;;24.37;36.99
18569;BME280;14780;48.316;-1.050;2023-02-19T02:51:25;100180.63;;;24.38;36.96
18569;BME280;14780;48.316;-1.050;2023-02-19T02:54:24;100178.97;;;24.37;37.03
18569;BME280;14780;48.316;-1.050;2023-02-19T02:57:28;100184.44;;;24.37;36.99
18569;BME280;14780;48.316;-1.050;2023-02-19T03:00:14;100179.53;;;24.39;36.86
18569;BME280;14780;48.316;-1.050;2023-02-19T03:02:59;100172.75;;;24.42;36.91
18569;BME280;14780;48.316;-1.050;2023-02-19T03:05:45;100181.19;;;24.40;36.88
18569;BME280;14780;48.316;-1.050;2023-02-19T03:08:53;100184.53;;;24.42;36.95
18569;BME280;14780;48.316;-1.050;2023-02-19T03:11:44;100177.97;;;24.43;36.91
18569;BME280;14780;48.316;-1.050;2023-02-19T03:14:51;100187.25;;;24.42;36.83
18569;BME280;14780;48.316;-1.050;2023-02-19T03:18:02;100185.34;;;24.43;36.92
18569;BME280;14780;48.316;-1.050;2023-02-19T03:21:09;100181.78;;;24.42;36.88
18569;BME280;14780;48.316;-1.050;2023-02-19T03:23:56;100183.44;;;24.43;36.88
18569;BME280;14780;48.316;-1.050;2023-02-19T03:27:01;100177.97;;;24.43;36.73
18569;BME280;14780;48.316;-1.050;2023-02-19T03:29:49;100179.63;;;24.44;36.71
18569;BME280;14780;48.316;-1.050;2023-02-19T03:32:54;100181.53;;;24.44;36.84
18569;BME280;14780;48.316;-1.050;2023-02-19T03:35:45;100171.41;;;24.44;36.86
18569;BME280;14780;48.316;-1.050;2023-02-19T03:42:08;100180.44;;;24.45;36.76
18569;BME280;14780;48.316;-1.050;2023-02-19T03:45:30;100191.13;;;24.46;36.82
18569;BME280;14780;48.316;-1.050;2023-02-19T03:48:28;100183.78;;;24.47;36.81
18569;BME280;14780;48.316;-1.050;2023-02-19T03:51:29;100190.06;;;24.47;36.71
18569;BME280;14780;48.316;-1.050;2023-02-19T03:54:42;100188.41;;;24.46;36.77
18569;BME280;14780;48.316;-1.050;2023-02-19T04:00:54;100183.78;;;24.47;36.68
18569;BME280;14780;48.316;-1.050;2023-02-19T04:03:55;100186.50;;;24.47;36.71
18569;BME280;14780;48.316;-1.050;2023-02-19T04:06:45;100190.06;;;24.47;36.73
18569;BME280;14780;48.316;-1.050;2023-02-19T04:09:45;100181.59;;;24.49;36.56
18569;BME280;14780;48.316;-1.050;2023-02-19T04:12:31;100183.78;;;24.47;36.55
18569;BME280;14780;48.316;-1.050;2023-02-19T04:15:22;100186.22;;;24.48;36.61
18569;BME280;14780;48.316;-1.050;2023-02-19T04:18:14;100176.97;;;24.49;36.66
18569;BME280;14780;48.316;-1.050;2023-02-19T04:21:02;100184.09;;;24.50;36.64
18569;BME280;14780;48.316;-1.050;2023-02-19T04:23:48;100191.22;;;24.51;36.63
18569;BME280;14780;48.316;-1.050;2023-02-19T04:26:34;100192.31;;;24.50;36.67
18569;BME280;14780;48.316;-1.050;2023-02-19T04:29:19;100195.03;;;24.50;36.67
18569;BME280;14780;48.316;-1.050;2023-02-19T04:32:04;100204.06;;;24.51;36.61
18569;BME280;14780;48.316;-1.050;2023-02-19T04:34:49;100197.50;;;24.52;36.63
18569;BME280;14780;48.316;-1.050;2023-02-19T04:37:34;100194.19;;;24.50;36.60
18569;BME280;14780;48.316;-1.050;2023-02-19T04:40:18;100193.97;;;24.51;36.55
18569;BME280;14780;48.316;-1.050;2023-02-19T04:43:03;100198.34;;;24.52;36.57
18569;BME280;14780;48.316;-1.050;2023-02-19T04:45:48;100198.34;;;24.52;36.46
18569;BME280;14780;48.316;-1.050;2023-02-19T04:48:32;100200.00;;;24.53;36.55
18569;BME280;14780;48.316;-1.050;2023-02-19T04:51:17;100201.09;;;24.52;36.47
18569;BME280;14780;48.316;-1.050;2023-02-19T04:54:02;100205.47;;;24.53;36.45
18569;BME280;14780;48.316;-1.050;2023-02-19T04:56:47;100203.59;;;24.54;36.29
18569;BME280;14780;48.316;-1.050;2023-02-19T04:59:34;100211.56;;;24.55;36.48
18569;BME280;14780;48.316;-1.050;2023-02-19T05:02:18;100202.75;;;24.53;36.37
18569;BME280;14780;48.316;-1.050;2023-02-19T05:05:03;100212.59;;;24.54;36.40
18569;BME280;14780;48.316;-1.050;2023-02-19T05:07:48;100214.28;;;24.55;36.35
18569;BME280;14780;48.316;-1.050;2023-02-19T05:10:33;100216.41;;;24.53;36.43
18569;BME280;14780;48.316;-1.050;2023-02-19T05:13:18;100218.69;;;24.56;36.47
18569;BME280;14780;48.316;-1.050;2023-02-19T05:16:05;100224.16;;;24.56;36.33
18569;BME280;14780;48.316;-1.050;2023-02-19T05:18:51;100229.38;;;24.58;36.44
18569;BME280;14780;48.316;-1.050;2023-02-19T05:21:35;100233.19;;;24.57;36.31
18569;BME280;14780;48.316;-1.050;2023-02-19T05:24:20;100231.53;;;24.56;36.38
18569;BME280;14780;48.316;-1.050;2023-02-19T05:27:05;100229.88;;;24.55;36.33
18569;BME280;14780;48.316;-1.050;2023-02-19T05:29:50;100233.44;;;24.55;36.39
18569;BME280;14780;48.316;-1.050;2023-02-19T05:32:36;100233.19;;;24.57;36.29
18569;BME280;14780;48.316;-1.050;2023-02-19T05:35:21;100242.25;;;24.57;36.28
18569;BME280;14780;48.316;-1.050;2023-02-19T05:38:06;100242.25;;;24.57;36.42
18569;BME280;14780;48.316;-1.050;2023-02-19T05:40:51;100240.31;;;24.58;36.28
18569;BME280;14780;48.316;-1.050;2023-02-19T05:43:37;100246.66;;;24.58;36.25
18569;BME280;14780;48.316;-1.050;2023-02-19T05:46:24;100250.47;;;24.57;36.31
18569;BME280;14780;48.316;-1.050;2023-02-19T05:49:10;100259.72;;;24.56;36.24
18569;BME280;14780;48.316;-1.050;2023-02-19T05:51:54;100263.06;;;24.58;36.33
18569;BME280;14780;48.316;-1.050;2023-02-19T05:54:39;100266.38;;;24.60;36.25
18569;BME280;14780;48.316;-1.050;2023-02-19T05:57:23;100274.00;;;24.58;36.28
18569;BME280;14780;48.316;-1.050;2023-02-19T06:00:13;100273.75;;;24.60;36.22
18569;BME280;14780;48.316;-1.050;2023-02-19T06:02:59;100281.94;;;24.60;36.31
18569;BME280;14780;48.316;-1.050;2023-02-19T06:05:44;100285.53;;;24.60;36.35
18569;BME280;14780;48.316;-1.050;2023-02-19T06:08:28;100285.53;;;24.60;36.28
18569;BME280;14780;48.316;-1.050;2023-02-19T06:11:13;100293.75;;;24.60;36.27
18569;BME280;14780;48.316;-1.050;2023-02-19T06:13:58;100294.31;;;24.62;36.31
18569;BME280;14780;48.316;-1.050;2023-02-19T06:16:42;100295.41;;;24.61;36.32
18569;BME280;14780;48.316;-1.050;2023-02-19T06:19:27;100293.75;;;24.60;36.29
18569;BME280;14780;48.316;-1.050;2023-02-19T06:22:14;100300.88;;;24.61;36.33
18569;BME280;14780;48.316;-1.050;2023-02-19T06:24:59;100301.94;;;24.60;36.25
18569;BME280;14780;48.316;-1.050;2023-02-19T06:27:43;100289.91;;;24.61;36.47
18569;BME280;14780;48.316;-1.050;2023-02-19T06:30:28;100295.41;;;24.61;36.52
18569;BME280;14780;48.316;-1.050;2023-02-19T06:33:12;100295.97;;;24.63;36.62
18569;BME280;14780;48.316;-1.050;2023-02-19T06:35:59;100299.31;;;24.65;36.75
18569;BME280;14780;48.316;-1.050;2023-02-19T06:38:44;100296.56;;;24.65;36.75
18569;BME280;14780;48.316;-1.050;2023-02-19T06:41:30;100302.28;;;24.64;36.77
18569;BME280;14780;48.316;-1.050;2023-02-19T06:44:14;100296.56;;;24.65;37.04
18569;BME280;14780;48.316;-1.050;2023-02-19T06:46:59;100299.31;;;24.65;37.04
18569;BME280;14780;48.316;-1.050;2023-02-19T06:49:44;100308.84;;;24.63;36.98
18569;BME280;14780;48.316;-1.050;2023-02-19T06:52:28;100310.50;;;24.64;37.06
18569;BME280;14780;48.316;-1.050;2023-02-19T06:55:13;100328.47;;;24.60;37.17
18569;BME280;14780;48.316;-1.050;2023-02-19T06:57:58;100318.94;;;24.62;37.06
18569;BME280;14780;48.316;-1.050;2023-02-19T07:00:42;100323.00;;;24.60;37.17
18569;BME280;14780;48.316;-1.050;2023-02-19T07:03:27;100316.59;;;24.54;37.36
18569;BME280;14780;48.316;-1.050;2023-02-19T07:06:12;100312.91;;;24.60;37.22
18569;BME280;14780;48.316;-1.050;2023-02-19T07:08:57;100318.59;;;24.59;37.22
18569;BME280;14780;48.316;-1.050;2023-02-19T07:11:42;100332.56;;;24.57;37.29
18569;BME280;14780;48.316;-1.050;2023-02-19T07:14:28;100326.81;;;24.59;37.18
18569;BME280;14780;48.316;-1.050;2023-02-19T07:17:13;100332.56;;;24.57;37.18
18569;BME280;14780;48.316;-1.050;2023-02-19T07:19:57;100333.13;;;24.59;37.04
18569;BME280;14780;48.316;-1.050;2023-02-19T07:22:42;100339.09;;;24.56;37.18
18569;BME280;14780;48.316;-1.050;2023-02-19T07:25:26;100336.59;;;24.55;37.16
18569;BME280;14780;48.316;-1.050;2023-02-19T07:28:11;100340.16;;;24.55;36.98
18569;BME280;14780;48.316;-1.050;2023-02-19T07:31:00;100343.59;;;24.51;37.05
18569;BME280;14780;48.316;-1.050;2023-02-19T07:33:46;100349.34;;;24.49;36.94
18569;BME280;14780;48.316;-1.050;2023-02-19T07:36:32;100348.75;;;24.47;36.80
18569;BME280;14780;48.316;-1.050;2023-02-19T07:39:16;100363.50;;;24.46;36.83
18569;BME280;14780;48.316;-1.050;2023-02-19T07:42:01;100355.19;;;24.41;36.76
18569;BME280;14780;48.316;-1.050;2023-02-19T07:44:45;100367.31;;;24.45;36.75
18569;BME280;14780;48.316;-1.050;2023-02-19T07:47:30;100366.75;;;24.43;36.72
18569;BME280;14780;48.316;-1.050;2023-02-19T07:50:15;100372.22;;;24.43;36.69
18569;BME280;14780;48.316;-1.050;2023-02-19T07:52:59;100365.66;;;24.44;36.76
18569;BME280;14780;48.316;-1.050;2023-02-19T07:55:44;100369.97;;;24.40;36.59
18569;BME280;14780;48.316;-1.050;2023-02-19T07:58:29;100373.53;;;24.41;36.64
18569;BME280;14780;48.316;-1.050;2023-02-19T08:01:22;100375.69;;;24.39;36.58
18569;BME280;14780;48.316;-1.050;2023-02-19T08:04:42;100386.38;;;24.40;36.57
18569;BME280;14780;48.316;-1.050;2023-02-19T08:07:32;100376.28;;;24.41;36.56
18569;BME280;14780;48.316;-1.050;2023-02-19T08:10:18;100384.72;;;24.39;36.55
18569;BME280;14780;48.316;-1.050;2023-02-19T08:13:22;100388.03;;;24.41;36.57
18569;BME280;14780;48.316;-1.050;2023-02-19T08:16:11;100386.88;;;24.37;36.64
18569;BME280;14780;48.316;-1.050;2023-02-19T08:18:56;100393.50;;;24.41;36.52
18569;BME280;14780;48.316;-1.050;2023-02-19T08:21:41;100392.91;;;24.39;36.65
18569;BME280;14780;48.316;-1.050;2023-02-19T08:24:26;100399.47;;;24.38;36.67
18569;BME280;14780;48.316;-1.050;2023-02-19T08:27:11;100399.81;;;24.42;36.61
18569;BME280;14780;48.316;-1.050;2023-02-19T08:29:56;100398.16;;;24.41;36.67
18569;BME280;14780;48.316;-1.050;2023-02-19T08:32:40;100398.72;;;24.43;36.57
18569;BME280;14780;48.316;-1.050;2023-02-19T08:35:26;100398.97;;;24.41;36.72
18569;BME280;14780;48.316;-1.050;2023-02-19T08:38:12;100411.09;;;24.45;36.57
18569;BME280;14780;48.316;-1.050;2023-02-19T08:41:07;100409.91;;;24.41;36.74
18569;BME280;14780;48.316;-1.050;2023-02-19T08:43:51;100405.28;;;24.42;36.78
18569;BME280;14780;48.316;-1.050;2023-02-19T08:46:36;100410.25;;;24.45;36.78
18569;BME280;14780;48.316;-1.050;2023-02-19T08:49:24;100409.91;;;24.41;36.60
18569;BME280;14780;48.316;-1.050;2023-02-19T08:52:09;100403.38;;;24.42;36.63
18569;BME280;14780;48.316;-1.050;2023-02-19T08:54:53;100399.56;;;24.43;36.57
18569;BME280;14780;48.316;-1.050;2023-02-19T08:57:38;100392.19;;;24.44;36.71
18569;BME280;14780;48.316;-1.050;2023-02-19T09:00:24;100399.56;;;24.43;36.58
18569;BME280;14780;48.316;-1.050;2023-02-19T09:03:09;100400.66;;;24.42;36.62
18569;BME280;14780;48.316;-1.050;2023-02-19T09:05:54;100396.00;;;24.43;36.58
18569;BME280;14780;48.316;-1.050;2023-02-19T09:08:39;100412.19;;;24.44;36.64
18569;BME280;14780;48.316;-1.050;2023-02-19T09:11:23;100406.72;;;24.44;36.57
18569;BME280;14780;48.316;-1.050;2023-02-19T09:14:08;100403.38;;;24.42;36.72
18569;BME280;14780;48.316;-1.050;2023-02-19T09:16:53;100411.59;;;24.42;36.62
18569;BME280;14780;48.316;-1.050;2023-02-19T09:19:38;100417.41;;;24.46;36.64
18569;BME280;14780;48.316;-1.050;2023-02-19T09:22:22;100414.06;;;24.44;36.73
18569;BME280;14780;48.316;-1.050;2023-02-19T09:25:07;100423.69;;;24.46;36.74
18569;BME280;14780;48.316;-1.050;2023-02-19T09:27:55;100429.66;;;24.43;36.77
18569;BME280;14780;48.316;-1.050;2023-02-19T09:30:40;100429.66;;;24.43;36.73
18569;BME280;14780;48.316;-1.050;2023-02-19T09:33:25;100431.31;;;24.44;36.72
18569;BME280;14780;48.316;-1.050;2023-02-19T09:36:10;100429.16;;;24.46;36.53
18569;BME280;14780;48.316;-1.050;2023-02-19T09:38:54;100429.16;;;24.46;36.58
18569;BME280;14780;48.316;-1.050;2023-02-19T09:44:39;100429.16;;;24.46;36.73
18569;BME280;14780;48.316;-1.050;2023-02-19T09:47:33;100436.56;;;24.46;36.65
18569;BME280;14780;48.316;-1.050;2023-02-19T09:50:22;100438.47;;;24.45;36.78
18569;BME280;14780;48.316;-1.050;2023-02-19T09:53:26;100430.00;;;24.47;36.67
18569;BME280;14780;48.316;-1.050;2023-02-19T09:56:12;100435.00;;;24.50;36.75
18569;BME280;14780;48.316;-1.050;2023-02-19T09:58:57;100442.03;;;24.46;36.96
18569;BME280;14780;48.316;-1.050;2023-02-19T10:01:43;100447.25;;;24.47;37.05
18569;BME280;14780;48.316;-1.050;2023-02-19T10:04:30;100437.50;;;24.51;36.84
18569;BME280;14780;48.316;-1.050;2023-02-19T10:07:20;100447.59;;;24.51;36.90
18569;BME280;14780;48.316;-1.050;2023-02-19T10:13:23;100442.63;;;24.48;36.97
18569;BME280;14780;48.316;-1.050;2023-02-19T10:16:24;100455.00;;;24.50;37.12
18569;BME280;14780;48.316;-1.050;2023-02-19T10:19:14;100453.91;;;24.51;37.02
18569;BME280;14780;48.316;-1.050;2023-02-19T10:22:00;100450.47;;;24.56;36.80
18569;BME280;14780;48.316;-1.050;2023-02-19T10:24:51;100454.72;;;24.52;37.13
18569;BME280;14780;48.316;-1.050;2023-02-19T10:27:36;100457.22;;;24.53;37.15
18569;BME280;14780;48.316;-1.050;2023-02-19T10:30:23;100475.69;;;24.58;37.36
18569;BME280;14780;48.316;-1.050;2023-02-19T10:33:12;100467.22;;;24.59;37.65
18569;BME280;14780;48.316;-1.050;2023-02-19T10:36:05;100470.88;;;24.65;37.51
18569;BME280;14780;48.316;-1.050;2023-02-19T10:38:51;100466.50;;;24.64;37.45
18569;BME280;14780;48.316;-1.050;2023-02-19T10:41:40;100461.03;;;24.64;37.67
18569;BME280;14780;48.316;-1.050;2023-02-19T10:44:27;100461.25;;;24.62;37.37
18569;BME280;14780;48.316;-1.050;2023-02-19T10:47:21;100467.69;;;24.56;37.11
18569;BME280;14780;48.316;-1.050;2023-02-19T10:50:22;100486.75;;;24.51;36.94
18569;BME280;14780;48.316;-1.050;2023-02-19T10:53:21;100476.88;;;24.50;36.98
18569;BME280;14780;48.316;-1.050;2023-02-19T10:56:28;100484.25;;;24.50;36.97
18569;BME280;14780;48.316;-1.050;2023-02-19T10:59:26;100479.13;;;24.53;37.09
18569;BME280;14780;48.316;-1.050;2023-02-19T11:02:19;100484.81;;;24.52;37.15
18569;BME280;14780;48.316;-1.050;2023-02-19T11:07:54;100507.94;;;24.56;37.28
18569;BME280;14780;48.316;-1.050;2023-02-19T11:10:41;100502.94;;;24.53;37.14
18569;BME280;14780;48.316;-1.050;2023-02-19T11:13:29;100498.41;;;24.58;37.17
18569;BME280;14780;48.316;-1.050;2023-02-19T11:16:15;100508.13;;;24.54;37.29
18569;BME280;14780;48.316;-1.050;2023-02-19T11:19:01;100509.38;;;24.58;37.23
18569;BME280;14780;48.316;-1.050;2023-02-19T11:21:45;100509.38;;;24.58;37.29
18569;BME280;14780;48.316;-1.050;2023-02-19T11:24:36;100514.34;;;24.61;37.35
18569;BME280;14780;48.316;-1.050;2023-02-19T11:27:23;100516.50;;;24.59;37.38
18569;BME280;14780;48.316;-1.050;2023-02-19T11:30:41;100507.53;;;24.64;37.42
18569;BME280;14780;48.316;-1.050;2023-02-19T11:33:27;100508.41;;;24.64;37.60
18569;BME280;14780;48.316;-1.050;2023-02-19T11:36:17;100506.47;;;24.65;37.58
18569;BME280;14780;48.316;-1.050;2023-02-19T12:06:12;100489.19;;;24.76;37.63
18569;BME280;14780;48.316;-1.050;2023-02-19T12:09:30;100481.72;;;24.71;37.54
18569;BME280;14780;48.316;-1.050;2023-02-19T12:12:35;100480.28;;;24.69;37.75
18569;BME280;14780;48.316;-1.050;2023-02-19T12:22:11;100463.69;;;24.75;37.43
18569;BME280;14780;48.316;-1.050;2023-02-19T12:34:12;100449.88;;;24.82;37.42
18569;BME280;14780;48.316;-1.050;2023-02-19T12:43:20;100448.53;;;24.84;37.09
18569;BME280;14780;48.316;-1.050;2023-02-19T12:46:37;100439.28;;;24.85;37.09
18569;BME280;14780;48.316;-1.050;2023-02-19T12:49:31;100435.34;;;24.81;36.99
18569;BME280;14780;48.316;-1.050;2023-02-19T12:52:30;100446.41;;;24.86;37.06
18569;BME280;14780;48.316;-1.050;2023-02-19T12:55:29;100447.22;;;24.87;37.09
18569;BME280;14780;48.316;-1.050;2023-02-19T12:58:49;100454.09;;;24.89;37.07
18569;BME280;14780;48.316;-1.050;2023-02-19T13:05:23;100450.06;;;24.92;36.84
18569;BME280;14780;48.316;-1.050;2023-02-19T13:11:19;100439.91;;;24.92;36.86
18569;BME280;14780;48.316;-1.050;2023-02-19T13:17:07;100438.44;;;25.01;36.54
18569;BME280;14780;48.316;-1.050;2023-02-19T13:20:28;100429.97;;;25.03;36.55
18569;BME280;14780;48.316;-1.050;2023-02-19T13:23:29;100447.81;;;25.05;36.75
18569;BME280;14780;48.316;-1.050;2023-02-19T13:29:53;100444.34;;;25.10;36.64
18569;BME280;14780;48.316;-1.050;2023-02-19T13:35:56;100450.09;;;25.08;36.74
18569;BME280;14780;48.316;-1.050;2023-02-19T13:38:49;100432.66;;;25.14;36.78
18569;BME280;14780;48.316;-1.050;2023-02-19T13:41:40;100439.84;;;25.20;36.77
18569;BME280;14780;48.316;-1.050;2023-02-19T13:44:31;100440.69;;;25.21;36.75
18569;BME280;14780;48.316;-1.050;2023-02-19T13:50:33;100438.81;;;25.21;36.77
18569;BME280;14780;48.316;-1.050;2023-02-19T13:56:38;100422.97;;;25.23;36.87
18569;BME280;14780;48.316;-1.050;2023-02-19T13:59:35;100421.31;;;25.22;36.63
18569;BME280;14780;48.316;-1.050;2023-02-19T14:05:09;100413.09;;;25.22;36.81
18569;BME280;14780;48.316;-1.050;2023-02-19T14:07:54;100423.19;;;25.22;36.72
18569;BME280;14780;48.316;-1.050;2023-02-19T14:10:50;100426.28;;;25.25;36.62
18569;BME280;14780;48.316;-1.050;2023-02-19T14:25:47;100415.56;;;25.40;36.59
18569;BME280;14780;48.316;-1.050;2023-02-19T14:28:51;100418.38;;;25.45;36.52
18569;BME280;14780;48.316;-1.050;2023-02-19T14:31:38;100408.25;;;25.46;36.55
18569;BME280;14780;48.316;-1.050;2023-02-19T14:34:23;100410.16;;;25.45;36.48
18569;BME280;14780;48.316;-1.050;2023-02-19T14:37:19;100408.00;;;25.47;36.51
18569;BME280;14780;48.316;-1.050;2023-02-19T14:40:05;100403.28;;;25.43;36.23
18569;BME280;14780;48.316;-1.050;2023-02-19T14:42:52;100404.34;;;25.42;36.38
18569;BME280;14780;48.316;-1.050;2023-02-19T14:45:42;100402.50;;;25.47;36.19
18569;BME280;14780;48.316;-1.050;2023-02-19T14:48:37;100392.63;;;25.46;36.22
18569;BME280;14780;48.316;-1.050;2023-02-19T14:51:42;100380.59;;;25.47;36.16
18569;BME280;14780;48.316;-1.050;2023-02-19T14:57:28;100390.75;;;25.47;36.38
18569;BME280;14780;48.316;-1.050;2023-02-19T15:00:33;100394.28;;;25.47;36.17
18569;BME280;14780;48.316;-1.050;2023-02-19T15:03:35;100395.94;;;25.48;36.16
18569;BME280;14780;48.316;-1.050;2023-02-19T15:06:20;100395.94;;;25.48;36.06
18569;BME280;14780;48.316;-1.050;2023-02-19T15:09:06;100400.94;;;25.51;36.02
18569;BME280;14780;48.316;-1.050;2023-02-19T15:11:53;100402.03;;;25.50;35.98
18569;BME280;14780;48.316;-1.050;2023-02-19T15:14:39;100400.94;;;25.51;36.13
18569;BME280;14780;48.316;-1.050;2023-02-19T15:17:32;100390.47;;;25.48;35.89
18569;BME280;14780;48.316;-1.050;2023-02-19T15:20:19;100388.91;;;25.52;35.90
18569;BME280;14780;48.316;-1.050;2023-02-19T15:23:07;100388.31;;;25.50;35.92
18569;BME280;14780;48.316;-1.050;2023-02-19T15:25:52;100393.19;;;25.48;35.98
18569;BME280;14780;48.316;-1.050;2023-02-19T15:28:37;100384.97;;;25.48;35.94
18569;BME280;14780;48.316;-1.050;2023-02-19T15:31:22;100387.16;;;25.46;35.77
18569;BME280;14780;48.316;-1.050;2023-02-19T15:34:19;100387.16;;;25.46;35.83
18569;BME280;14780;48.316;-1.050;2023-02-19T15:37:06;100375.63;;;25.44;35.70
18569;BME280;14780;48.316;-1.050;2023-02-19T15:39:53;100380.59;;;25.47;35.70
18569;BME280;14780;48.316;-1.050;2023-02-19T15:42:39;100367.47;;;25.49;35.77
18569;BME280;14780;48.316;-1.050;2023-02-19T15:45:46;100370.19;;;25.49;35.76
18569;BME280;14780;48.316;-1.050;2023-02-19T15:48:40;100377.38;;;25.50;35.64
18569;BME280;14780;48.316;-1.050;2023-02-19T15:51:38;100371.03;;;25.50;35.64
18569;BME280;14780;48.316;-1.050;2023-02-19T15:54:30;100377.94;;;25.52;35.59
18569;BME280;14780;48.316;-1.050;2023-02-19T15:57:23;100383.09;;;25.49;35.58
18569;BME280;14780;48.316;-1.050;2023-02-19T16:00:29;100384.56;;;25.56;35.73
18569;BME280;14780;48.316;-1.050;2023-02-19T16:03:24;100382.31;;;25.53;35.73
18569;BME280;14780;48.316;-1.050;2023-02-19T16:06:11;100381.31;;;25.59;35.77
18569;BME280;14780;48.316;-1.050;2023-02-19T16:09:15;100378.63;;;25.64;35.87
18569;BME280;14780;48.316;-1.050;2023-02-19T16:12:20;100378.06;;;25.62;35.46
18569;BME280;14780;48.316;-1.050;2023-02-19T16:15:13;100378.50;;;25.54;35.33
18569;BME280;14780;48.316;-1.050;2023-02-19T16:17:58;100378.09;;;25.46;35.24
18569;BME280;14780;48.316;-1.050;2023-02-19T16:20:46;100376.72;;;25.43;35.11
18569;BME280;14780;48.316;-1.050;2023-02-19T16:23:31;100372.81;;;25.39;35.27
18569;BME280;14780;48.316;-1.050;2023-02-19T16:26:17;100373.38;;;25.41;35.19
18569;BME280;14780;48.316;-1.050;2023-02-19T16:29:01;100368.16;;;25.40;35.05
18569;BME280;14780;48.316;-1.050;2023-02-19T16:31:48;100376.72;;;25.43;35.19
18569;BME280;14780;48.316;-1.050;2023-02-19T16:34:41;100374.13;;;25.37;34.96
18569;BME280;14780;48.316;-1.050;2023-02-19T16:37:38;100372.88;;;25.44;35.04
18569;BME280;14780;48.316;-1.050;2023-02-19T16:45:57;100379.69;;;25.42;35.06